Time;durP1;ratioP1;P1;durP2;ratioP2;P2;SDS_P1;SDS_P2;PMS_P1;PMS_P2;Temp;Humidity;BMP_temperature;BMP_pressure;BME280_temperature;BME280_humidity;BME280_pressure;Samples;Min_cycle;Max_cycle;Signal;HPM_P1;HPM_P2
2023/11/09 00:00:21;;;;;;;26.20;17.13;;;;;;;6.56;100.00;100477.59;5031375;28;20041;-64
2023/11/09 00:02:46;;;;;;;28.07;18.57;;;;;;;6.61;100.00;100496.53;5031415;28;20120;-65
2023/11/09 00:05:13;;;;;;;24.53;17.17;;;;;;;6.58;100.00;100495.00;5032021;28;20049;-64
2023/11/09 00:07:39;;;;;;;27.97;16.87;;;;;;;6.64;100.00;100494.41;5031108;28;20033;-64
2023/11/09 00:10:06;;;;;;;25.67;16.67;;;;;;;6.66;100.00;100495.13;5031109;28;20033;-64
2023/11/09 00:12:32;;;;;;;26.00;18.80;;;;;;;6.69;100.00;100486.06;5031550;28;20385;-65
2023/11/09 00:14:59;;;;;;;31.40;17.87;;;;;;;6.75;100.00;100493.44;5031639;28;20041;-63
2023/11/09 00:17:24;;;;;;;28.87;18.93;;;;;;;6.69;100.00;100486.91;5030201;28;20436;-64
2023/11/09 00:19:50;;;;;;;32.20;18.63;;;;;;;6.72;100.00;100499.84;5030882;28;20676;-64
2023/11/09 00:22:16;;;;;;;36.53;19.53;;;;;;;6.60;100.00;100481.63;5030849;28;20048;-66
2023/11/09 00:24:42;;;;;;;31.93;19.60;;;;;;;6.52;100.00;100480.53;5030920;28;20060;-64
2023/11/09 00:27:07;;;;;;;31.13;17.87;;;;;;;6.57;100.00;100489.84;5031303;28;20049;-64
2023/11/09 00:29:35;;;;;;;28.87;16.53;;;;;;;6.58;100.00;100476.47;5031450;28;20042;-64
2023/11/09 00:32:00;;;;;;;33.87;18.17;;;;;;;6.65;100.00;100476.72;5031526;28;20033;-65
2023/11/09 00:34:26;;;;;;;30.97;18.13;;;;;;;6.75;100.00;100493.44;5031108;28;20048;-63
2023/11/09 00:36:52;;;;;;;29.77;17.83;;;;;;;6.73;100.00;100487.44;5031111;28;20489;-63
2023/11/09 00:39:20;;;;;;;28.57;18.43;;;;;;;6.52;100.00;100450.59;5032752;28;20420;-64
2023/11/09 00:41:46;;;;;;;33.08;18.38;;;;;;;6.73;100.00;100488.28;5031853;28;20044;-64
2023/11/09 00:44:11;;;;;;;29.73;17.13;;;;;;;6.69;100.00;100478.97;5031322;28;20461;-64
2023/11/09 00:46:37;;;;;;;29.70;17.80;;;;;;;6.68;100.00;100487.88;5030957;28;20049;-65
2023/11/09 00:49:03;;;;;;;26.10;17.43;;;;;;;6.38;100.00;100438.69;5030780;28;20068;-65
2023/11/09 00:51:30;;;;;;;26.73;16.63;;;;;;;6.75;100.00;100494.25;5030750;28;20042;-66
2023/11/09 00:53:55;;;;;;;26.37;16.83;;;;;;;6.75;100.00;100499.56;5032013;28;20040;-65
2023/11/09 00:56:21;;;;;;;29.33;18.13;;;;;;;6.71;100.00;100492.06;5013587;28;20025;-65
2023/11/09 00:58:47;;;;;;;29.80;17.93;;;;;;;6.45;100.00;100463.56;5032389;28;20638;-66
2023/11/09 01:01:12;;;;;;;26.77;18.03;;;;;;;6.29;100.00;100438.69;5034221;28;20045;-65
2023/11/09 01:03:38;;;;;;;28.70;18.10;;;;;;;6.47;100.00;100474.84;5033973;28;20220;-65
2023/11/09 01:06:06;;;;;;;28.60;17.07;;;;;;;6.52;100.00;100477.06;5034069;28;20124;-65
2023/11/09 01:08:32;;;;;;;31.03;19.63;;;;;;;6.68;100.00;100495.81;5033157;28;20053;-64
2023/11/09 01:10:59;;;;;;;29.73;18.17;;;;;;;6.49;100.00;100462.31;5034141;28;20419;-66
2023/11/09 01:13:24;;;;;;;34.17;19.03;;;;;;;6.74;100.00;100495.25;5034216;28;20515;-65
2023/11/09 01:15:50;;;;;;;26.60;17.13;;;;;;;6.67;100.00;100480.09;5034493;28;20037;-65
2023/11/09 01:18:15;;;;;;;27.73;18.40;;;;;;;6.73;100.00;100484.81;5032941;28;20432;-63
2023/11/09 01:20:41;;;;;;;26.67;17.63;;;;;;;6.71;100.00;100492.06;5034078;28;20476;-65
2023/11/09 01:23:08;;;;;;;29.90;17.77;;;;;;;6.58;100.00;100470.34;5033766;28;20061;-66
2023/11/09 01:25:34;;;;;;;25.77;17.20;;;;;;;6.70;100.00;100485.94;5034095;28;20048;-65
2023/11/09 01:28:02;;;;;;;22.83;16.63;;;;;;;6.63;100.00;100466.28;5033917;28;20037;-67
2023/11/09 01:30:29;;;;;;;26.93;17.17;;;;;;;6.74;100.00;100475.88;5033915;28;20060;-62
2023/11/09 01:32:57;;;;;;;24.97;16.33;;;;;;;6.68;100.00;100461.41;5033754;28;20044;-64
2023/11/09 01:35:23;;;;;;;;;;;;;;;6.87;100.00;100480.84;5032984;28;20128;-65
2023/11/09 01:37:49;;;;;;;20.67;13.47;;;;;;;6.75;100.00;100477.53;5033141;28;20004;-65
2023/11/09 01:40:15;;;;;;;23.73;15.17;;;;;;;6.78;100.00;100486.03;5034262;28;20033;-66
2023/11/09 01:42:44;;;;;;;21.77;13.13;;;;;;;6.68;100.00;100471.19;5033895;28;20034;-64
2023/11/09 01:45:10;;;;;;;21.67;14.00;;;;;;;6.64;100.00;100461.81;5034056;28;20037;-65
2023/11/09 01:47:36;;;;;;;19.97;13.00;;;;;;;6.54;100.00;100438.06;5033739;28;20124;-63
2023/11/09 01:50:02;;;;;;;16.77;12.87;;;;;;;6.69;100.00;100463.09;5033553;28;20188;-64
2023/11/09 01:52:30;;;;;;;18.15;13.40;;;;;;;6.78;100.00;100480.75;5016293;28;20435;-63
2023/11/09 01:54:56;;;;;;;17.53;12.10;;;;;;;6.81;100.00;100482.25;5016135;28;20465;-65
2023/11/09 01:57:23;;;;;;;21.60;13.37;;;;;;;6.84;100.00;100482.78;5034146;28;20033;-66
2023/11/09 01:59:51;;;;;;;17.13;12.47;;;;;;;6.82;100.00;100473.34;5033559;28;20037;-65
2023/11/09 02:02:17;;;;;;;17.63;11.57;;;;;;;6.69;100.00;100446.38;5033365;28;20044;-66
2023/11/09 02:04:45;;;;;;;18.67;12.53;;;;;;;6.85;100.00;100459.81;5033351;28;20041;-67
2023/11/09 02:07:10;;;;;;;21.37;12.47;;;;;;;6.94;100.00;100471.31;5032610;28;20120;-65
2023/11/09 02:09:36;;;;;;;18.30;12.53;;;;;;;6.74;100.00;100439.66;5032370;28;20465;-64
2023/11/09 02:12:03;;;;;;;16.87;11.33;;;;;;;6.92;100.00;100466.19;5033784;28;20041;-66
2023/11/09 02:14:29;;;;;;;17.13;12.30;;;;;;;6.97;100.00;100471.88;5033335;28;20042;-64
2023/11/09 02:16:56;;;;;;;18.77;12.20;;;;;;;6.95;100.00;100468.56;5032042;28;20029;-64
2023/11/09 02:19:22;;;;;;;17.03;12.50;;;;;;;6.94;100.00;100476.63;5031884;28;20527;-65
2023/11/09 02:22:08;;;;;;;15.10;11.30;;;;;;;6.99;100.00;100477.03;5032237;28;20504;-64
2023/11/09 02:24:35;;;;;;;19.70;12.03;;;;;;;6.90;100.00;100468.13;5032929;28;20057;-63
2023/11/09 02:27:01;;;;;;;16.07;11.00;;;;;;;6.99;100.00;100482.34;5033076;28;20065;-66
2023/11/09 02:29:27;;;;;;;16.43;11.40;;;;;;;7.01;100.00;100481.19;5033093;28;20044;-65
2023/11/09 02:31:53;;;;;;;14.10;10.97;;;;;;;6.97;100.00;100479.84;5033240;28;20045;-64
2023/11/09 02:34:23;;;;;;;17.13;11.33;;;;;;;6.97;100.00;100485.13;5015816;28;20457;-63
2023/11/09 02:36:50;;;;;;;18.77;13.37;;;;;;;6.90;100.00;100491.97;5033531;28;20087;-64
2023/11/09 02:39:16;;;;;;;13.83;10.43;;;;;;;6.74;100.00;100470.59;5032950;28;20442;-65
2023/11/09 02:41:42;;;;;;;10.90;9.03;;;;;;;6.64;100.00;100451.25;5033201;28;20064;-63
2023/11/09 02:44:08;;;;;;;13.90;11.20;;;;;;;6.90;100.00;100485.84;5033053;28;20112;-63
2023/11/09 02:46:35;;;;;;;12.63;9.43;;;;;;;6.90;100.00;100478.72;5033048;28;20084;-64
2023/11/09 02:49:01;;;;;;;12.17;8.53;;;;;;;6.95;100.00;100475.66;5033039;28;20124;-63
2023/11/09 02:51:26;;;;;;;14.07;9.90;;;;;;;6.65;100.00;100434.38;5032636;28;20488;-66
2023/11/09 02:53:53;;;;;;;11.47;8.63;;;;;;;6.90;100.00;100481.38;5033012;28;20045;-65
2023/11/09 02:56:20;;;;;;;13.20;9.07;;;;;;;6.89;100.00;100497.41;5033141;28;20052;-66
2023/11/09 02:58:47;;;;;;;11.93;9.60;;;;;;;6.89;100.00;100492.09;5032649;28;20059;-65
2023/11/09 03:01:13;;;;;;;14.20;8.83;;;;;;;6.78;100.00;100462.22;5032899;28;20091;-64
2023/11/09 03:03:39;;;;;;;12.43;10.23;;;;;;;6.80;100.00;100464.72;5032859;28;20046;-64
2023/11/09 03:06:05;;;;;;;13.30;9.90;;;;;;;6.87;100.00;100486.97;5031530;28;20039;-67
2023/11/09 03:08:31;;;;;;;11.57;9.37;;;;;;;6.95;100.00;100478.31;5038827;28;20037;-65
2023/11/09 03:10:57;;;;;;;12.37;9.00;;;;;;;6.90;100.00;100470.78;5044307;28;20052;-64
2023/11/09 03:13:26;;;;;;;16.27;9.63;;;;;;;6.76;100.00;100447.47;5031872;28;20075;-65
2023/11/09 03:15:51;;;;;;;13.25;10.23;;;;;;;6.98;100.00;100489.44;5032129;28;20045;-62
2023/11/09 03:18:19;;;;;;;13.03;9.20;;;;;;;6.87;100.00;100463.13;5034288;28;20071;-63
2023/11/09 03:20:44;;;;;;;12.93;9.70;;;;;;;7.01;100.00;100489.16;5045137;28;20045;-66
2023/11/09 03:23:10;;;;;;;15.57;11.37;;;;;;;7.01;100.00;100483.84;5047415;28;20120;-65
2023/11/09 03:25:36;;;;;;;15.07;11.07;;;;;;;7.00;100.00;100487.47;5053106;28;20037;-66
2023/11/09 03:28:02;;;;;;;17.13;10.37;;;;;;;7.04;100.00;100498.63;5045975;28;20069;-64
2023/11/09 03:30:30;;;;;;;15.97;11.33;;;;;;;6.78;100.00;100453.44;5040624;28;20041;-64
2023/11/09 03:32:57;;;;;;;17.33;11.38;;;;;;;7.09;100.00;100499.00;5055465;28;20042;-65
2023/11/09 03:35:23;;;;;;;12.50;10.40;;;;;;;7.08;100.00;100500.81;5054365;28;20041;-64
2023/11/09 03:37:49;;;;;;;15.33;11.57;;;;;;;7.10;100.00;100500.66;5051841;28;20048;-63
2023/11/09 03:40:15;;;;;;;15.97;10.70;;;;;;;6.98;100.00;100484.16;5043524;28;20030;-63
2023/11/09 03:42:41;;;;;;;17.70;10.97;;;;;;;7.13;100.00;100503.84;5049351;28;20025;-62
2023/11/09 03:45:07;;;;;;;15.47;10.70;;;;;;;7.03;100.00;100483.69;5048861;28;20475;-66
2023/11/09 03:47:33;;;;;;;17.57;12.20;;;;;;;7.14;100.00;100502.88;5051377;28;20064;-66
2023/11/09 03:49:59;;;;;;;16.80;11.97;;;;;;;6.94;100.00;100472.19;5051392;28;20038;-64
2023/11/09 03:52:27;;;;;;;20.60;13.33;;;;;;;7.07;100.00;100507.09;5052642;28;20042;-65
2023/11/09 03:54:56;;;;;;;19.55;12.80;;;;;;;6.96;100.00;100491.41;5053454;28;20080;-65
2023/11/09 03:57:22;;;;;;;18.80;12.25;;;;;;;7.00;100.00;100497.25;5052743;28;20034;-67
2023/11/09 03:59:47;;;;;;;16.77;11.93;;;;;;;6.94;100.00;100482.78;5053117;28;20156;-64
2023/11/09 04:02:13;;;;;;;17.20;12.70;;;;;;;7.03;100.00;100492.47;5052009;28;20044;-64
2023/11/09 04:04:39;;;;;;;19.90;13.67;;;;;;;6.93;100.00;100482.91;5053516;28;20087;-64
2023/11/09 04:07:04;;;;;;;18.97;13.83;;;;;;;6.98;100.00;100504.50;5052966;28;20033;-64
2023/11/09 04:09:30;;;;;;;16.27;12.27;;;;;;;6.92;100.00;100487.34;5047117;28;20044;-67
2023/11/09 04:12:02;;;;;;;16.50;12.10;;;;;;;6.83;100.00;100470.53;5034634;28;20044;-65
2023/11/09 04:14:33;;;;;;;15.37;11.13;;;;;;;7.04;100.00;100515.34;5034121;28;20042;-66
2023/11/09 04:16:59;;;;;;;17.30;11.47;;;;;;;6.69;100.00;100463.09;5030236;28;20029;-64
2023/11/09 04:19:24;;;;;;;16.63;11.47;;;;;;;6.79;100.00;100490.34;5031406;28;20044;-65
2023/11/09 04:21:50;;;;;;;19.37;12.70;;;;;;;6.72;100.00;100483.97;5031439;28;20129;-64
2023/11/09 04:24:15;;;;;;;16.20;11.03;;;;;;;6.72;100.00;100483.13;4965421;28;1888442;-64
2023/11/09 04:26:42;;;;;;;15.00;9.17;;;;;;;6.95;100.00;100523.31;5032024;28;20091;-66
2023/11/09 04:29:10;;;;;;;18.47;11.27;;;;;;;6.80;100.00;100512.34;5031656;28;20045;-65
2023/11/09 04:31:37;;;;;;;;;;;;;;;6.92;100.00;100515.63;5032490;28;20041;-65
2023/11/09 04:34:09;;;;;;;18.70;10.33;;;;;;;6.87;100.00;100518.72;5033748;28;19923;-65
2023/11/09 04:36:42;;;;;;;18.83;10.60;;;;;;;6.80;100.00;100507.06;5035102;28;20033;-65
2023/11/09 04:39:09;;;;;;;17.63;10.90;;;;;;;6.46;100.00;100445.88;5035855;28;20417;-63
2023/11/09 04:41:35;;;;;;;15.50;10.03;;;;;;;6.76;100.00;100505.69;5037720;28;20041;-64
2023/11/09 04:44:01;;;;;;;15.40;8.93;;;;;;;6.78;100.00;100511.66;5048577;28;20046;-65
2023/11/09 04:46:31;;;;;;;16.13;10.30;;;;;;;6.76;100.00;100505.69;5055011;28;20092;-66
2023/11/09 04:49:05;;;;;;;15.13;10.67;;;;;;;6.69;100.00;100492.19;5036090;28;20432;-65
2023/11/09 04:51:31;;;;;;;15.23;8.97;;;;;;;6.82;100.00;100521.81;5034128;28;20507;-66
2023/11/09 04:54:06;;;;;;;14.07;9.30;;;;;;;6.63;100.00;100486.63;5035434;28;20044;-65
2023/11/09 04:56:42;;;;;;;14.57;9.47;;;;;;;6.84;100.00;100524.31;5035481;28;20030;-64
2023/11/09 05:07:30;;;;;;;18.50;9.10;;;;;;;6.81;100.00;100508.72;5034580;28;20559;-64
2023/11/09 05:10:00;;;;;;;16.87;10.40;;;;;;;6.82;100.00;100526.28;5034649;28;20172;-67
2023/11/09 05:12:26;;;;;;;16.20;9.27;;;;;;;6.87;100.00;100518.72;5035183;28;20528;-70
2023/11/09 05:14:53;;;;;;;18.13;9.50;;;;;;;6.89;100.00;100524.72;5043159;28;20179;-70
2023/11/09 05:17:22;;;;;;;16.00;9.40;;;;;;;6.88;100.00;100515.09;5034321;28;20176;-69
2023/11/09 05:19:48;;;;;;;15.93;8.97;;;;;;;6.82;100.00;100505.94;5034151;28;20029;-66
2023/11/09 05:22:15;;;;;;;14.83;8.87;;;;;;;6.75;100.00;100490.78;5034147;28;20168;-68
2023/11/09 05:24:42;;;;;;;18.33;9.07;;;;;;;6.83;100.00;100496.19;5034433;28;20092;-67
2023/11/09 05:27:08;;;;;;;21.40;10.37;;;;;;;6.98;100.00;100523.88;5032881;28;20037;-66
2023/11/09 05:29:34;;;;;;;13.53;8.97;;;;;;;6.92;100.00;100513.81;5034115;28;20507;-67
2023/11/09 05:32:06;;;;;;;14.63;9.17;;;;;;;7.01;100.00;100526.22;5033906;28;20042;-67
2023/11/09 05:34:35;;;;;;;17.63;10.80;;;;;;;6.96;100.00;100531.13;5033668;28;20037;-69
2023/11/09 05:37:05;;;;;;;14.87;9.90;;;;;;;6.91;100.00;100519.28;5033448;28;20037;-66
2023/11/09 05:39:31;;;;;;;17.60;10.17;;;;;;;6.78;100.00;100501.06;5033668;28;20067;-66
2023/11/09 05:41:59;;;;;;;11.87;8.33;;;;;;;6.99;100.00;100533.47;5033723;28;20068;-67
2023/11/09 05:44:28;;;;;;;14.97;9.13;;;;;;;6.83;100.00;100506.75;5032987;28;20064;-68
2023/11/09 05:46:56;;;;;;;19.33;10.77;;;;;;;6.92;100.00;100521.78;5033925;28;20041;-69
2023/11/09 05:49:23;;;;;;;17.87;9.67;;;;;;;6.95;100.00;100526.81;5032705;28;20041;-66
2023/11/09 05:51:49;;;;;;;16.47;10.50;;;;;;;6.89;100.00;100526.53;5032546;28;20037;-67
2023/11/09 05:54:15;;;;;;;17.00;11.20;;;;;;;6.95;100.00;100544.50;5032920;28;20386;-66
2023/11/09 05:56:44;;;;;;;20.47;10.80;;;;;;;6.90;100.00;100539.63;5033109;28;20046;-67
2023/11/09 05:59:09;;;;;;;18.15;10.27;;;;;;;6.77;100.00;100517.94;5033360;28;20045;-64
2023/11/09 06:01:37;;;;;;;20.10;10.80;;;;;;;6.86;100.00;100532.94;5033938;28;20038;-65
2023/11/09 06:04:03;;;;;;;19.10;10.90;;;;;;;6.17;100.00;100422.16;5034125;28;20033;-67
2023/11/09 06:06:29;;;;;;;18.03;9.77;;;;;;;6.84;100.00;100524.31;5034184;28;20484;-67
2023/11/09 06:08:55;;;;;;;18.73;10.43;;;;;;;6.84;100.00;100527.78;5033360;28;20061;-66
2023/11/09 06:11:21;;;;;;;18.73;11.43;;;;;;;6.84;100.00;100529.59;5033178;28;20037;-65
2023/11/09 06:13:48;;;;;;;20.90;11.60;;;;;;;6.90;100.00;100530.84;5033132;28;20036;-65
2023/11/09 06:16:14;;;;;;;21.33;11.17;;;;;;;6.89;100.00;100530.00;5033165;28;20029;-65
2023/11/09 06:18:42;;;;;;;17.03;10.30;;;;;;;6.85;100.00;100531.28;5032950;28;20040;-65
2023/11/09 06:21:09;;;;;;;20.13;11.95;;;;;;;6.90;100.00;100544.91;5031867;28;20069;-65
2023/11/09 06:23:35;;;;;;;20.43;11.80;;;;;;;6.76;100.00;100521.56;5033021;28;20045;-65
2023/11/09 06:26:01;;;;;;;18.03;9.73;;;;;;;6.90;100.00;100547.56;5032792;28;20079;-64
2023/11/09 06:28:26;;;;;;;18.93;10.57;;;;;;;6.89;100.00;100553.81;5032652;28;20080;-65
2023/11/09 06:30:52;;;;;;;15.67;9.20;;;;;;;6.71;100.00;100524.66;5032609;28;20041;-65
2023/11/09 06:33:18;;;;;;;17.10;9.83;;;;;;;6.82;100.00;100542.16;5032395;28;20424;-65
2023/11/09 06:35:48;;;;;;;16.03;8.30;;;;;;;7.00;100.00;100569.56;5031299;28;20038;-66
2023/11/09 06:38:15;;;;;;;11.73;7.17;;;;;;;7.04;100.00;100565.63;5033629;28;20036;-65
2023/11/09 06:40:40;;;;;;;14.93;7.50;;;;;;;6.90;100.00;100539.63;5032825;28;20037;-66
2023/11/09 06:43:06;;;;;;;13.60;8.57;;;;;;;7.08;100.00;100574.97;5032742;28;20080;-66
2023/11/09 06:45:32;;;;;;;12.23;7.27;;;;;;;7.04;100.00;100562.16;5031180;28;20060;-66
2023/11/09 06:47:58;;;;;;;11.17;7.83;;;;;;;7.08;100.00;100561.72;5031219;28;20044;-64
2023/11/09 06:50:23;;;;;;;7.27;5.97;;;;;;;7.06;100.00;100553.09;5032370;28;20064;-66
2023/11/09 06:52:51;;;;;;;8.67;6.23;;;;;;;7.18;100.00;100574.09;5032744;28;20029;-65
2023/11/09 06:55:17;;;;;;;7.93;6.10;;;;;;;7.22;100.00;100573.66;5030860;28;20040;-71
2023/11/09 06:57:46;;;;;;;8.87;6.17;;;;;;;7.19;100.00;100571.28;5031550;28;20076;-65
2023/11/09 07:00:12;;;;;;;9.50;5.93;;;;;;;7.20;100.00;100569.47;5031842;28;20037;-66
2023/11/09 07:02:39;;;;;;;7.93;5.67;;;;;;;7.20;100.00;100567.66;5032004;28;20029;-65
2023/11/09 07:05:08;;;;;;;8.63;6.17;;;;;;;7.24;100.00;100576.19;5032152;28;20041;-63
2023/11/09 07:07:34;;;;;;;;;;;;;;;7.27;100.00;100576.72;5032594;28;20040;-64
2023/11/09 07:10:01;;;;;;;9.57;6.13;;;;;;;7.13;100.00;100564.75;5032228;28;19921;-65
2023/11/09 07:12:27;;;;;;;8.70;6.23;;;;;;;7.29;100.00;100579.22;5030598;28;20061;-65
2023/11/09 07:14:53;;;;;;;9.57;6.80;;;;;;;7.27;100.00;100579.38;5031516;28;20535;-66
2023/11/09 07:17:22;;;;;;;9.53;6.17;;;;;;;7.26;100.00;100576.88;5029552;28;20095;-68
2023/11/09 07:19:49;;;;;;;10.60;6.80;;;;;;;7.36;100.00;100585.59;5031780;28;20041;-67
2023/11/09 07:22:16;;;;;;;7.27;5.40;;;;;;;7.30;100.00;100568.47;5031626;28;20044;-68
2023/11/09 07:27:35;;;;;;;8.07;6.10;;;;;;;7.40;100.00;100579.03;5031270;28;20512;-65
2023/11/09 07:30:02;;;;;;;7.47;6.60;;;;;;;7.30;100.00;100567.63;5031993;28;20564;-67
2023/11/09 07:32:30;;;;;;;8.98;6.85;;;;;;;7.53;100.00;100603.38;5032176;28;20048;-66
2023/11/09 07:34:55;;;;;;;8.07;5.40;;;;;;;7.51;100.00;100600.00;5031080;28;20041;-71
2023/11/09 07:37:21;;;;;;;6.83;5.63;;;;;;;7.39;100.00;100591.44;5031652;28;20068;-64
2023/11/09 07:39:48;;;;;;;6.23;4.67;;;;;;;7.44;100.00;100607.72;5032583;28;20033;-65
2023/11/09 07:42:13;;;;;;;8.10;5.40;;;;;;;7.48;100.00;100610.91;5031861;28;20037;-65
2023/11/09 07:44:39;;;;;;;5.80;4.77;;;;;;;7.33;100.00;100585.88;5031560;28;20037;-66
2023/11/09 07:47:04;;;;;;;7.87;6.10;;;;;;;7.50;100.00;100611.59;5030328;28;20120;-65
2023/11/09 07:49:30;;;;;;;6.17;5.53;;;;;;;7.49;100.00;100609.91;5031446;28;20029;-64
2023/11/09 07:51:58;;;;;;;9.07;5.57;;;;;;;7.51;100.00;100605.31;5031450;28;20067;-65
2023/11/09 07:54:25;;;;;;;5.97;5.07;;;;;;;7.53;100.00;100615.78;5031328;28;20068;-66
2023/11/09 07:56:51;;;;;;;7.90;5.17;;;;;;;7.51;100.00;100621.22;5031378;28;20496;-66
2023/11/09 07:59:17;;;;;;;7.17;5.30;;;;;;;7.50;100.00;100627.50;5031339;28;20034;-66
2023/11/09 08:01:43;;;;;;;8.03;5.80;;;;;;;7.56;100.00;100632.22;5030029;28;20034;-67
2023/11/09 08:04:09;;;;;;;7.07;5.20;;;;;;;7.38;100.00;100596.88;5031100;28;20124;-64
2023/11/09 08:06:37;;;;;;;7.50;5.73;;;;;;;7.61;100.00;100635.28;5031130;28;20040;-64
2023/11/09 08:09:05;;;;;;;6.93;5.07;;;;;;;7.57;100.00;100618.00;5033028;28;20033;-64
2023/11/09 08:11:32;;;;;;;7.07;4.93;;;;;;;7.61;100.00;100624.66;5035104;28;20049;-64
2023/11/09 08:13:58;;;;;;;7.43;5.20;;;;;;;7.46;100.00;100599.63;5035297;28;20051;-65
2023/11/09 08:16:24;;;;;;;8.83;5.97;;;;;;;7.34;100.00;100590.22;5035189;28;20117;-66
2023/11/09 08:18:49;;;;;;;8.37;5.50;;;;;;;7.58;100.00;100632.91;5035216;28;20030;-66
2023/11/09 08:21:15;;;;;;;11.90;8.20;;;;;;;7.31;100.00;100585.19;5034950;28;20120;-66
2023/11/09 08:23:42;;;;;;;8.70;6.83;;;;;;;7.48;100.00;100616.19;5033648;28;20055;-66
2023/11/09 08:26:10;;;;;;;10.80;7.93;;;;;;;7.53;100.00;100631.69;5023589;28;20449;-66
2023/11/09 08:28:37;;;;;;;12.05;7.35;;;;;;;7.43;100.00;100615.81;5015253;28;20388;-66
2023/11/09 08:31:08;;;;;;;11.87;7.67;;;;;;;7.44;100.00;100622.78;4997902;28;20128;-65
2023/11/09 08:33:37;;;;;;;11.03;7.60;;;;;;;7.50;100.00;100638.09;5015241;28;20042;-67
2023/11/09 08:36:04;;;;;;;;;;;;;;;7.57;100.00;100655.09;5015477;28;20034;-65
2023/11/09 08:38:33;;;;;;;10.33;7.70;;;;;;;7.56;100.00;100652.59;5016130;28;19917;-67
2023/11/09 08:41:05;;;;;;;12.27;8.03;;;;;;;7.39;100.00;100636.47;5015538;28;20497;-74
2023/11/09 08:43:34;;;;;;;11.90;8.17;;;;;;;7.44;100.00;100655.41;5015325;28;20392;-68
2023/11/09 08:46:03;;;;;;;16.47;8.97;;;;;;;7.32;100.00;100639.84;5015180;28;20088;-66
2023/11/09 08:48:31;;;;;;;;;;;;;;;7.54;100.00;100663.34;5015335;28;20096;-68
2023/11/09 08:51:00;;;;;;;11.25;7.80;;;;;;;7.49;100.00;100652.31;4997059;28;19918;-68
2023/11/09 08:53:30;;;;;;;10.10;7.43;;;;;;;6.93;100.00;100573.75;5014969;28;20061;-66
2023/11/09 08:55:56;;;;;;;12.33;8.20;;;;;;;7.52;100.00;100661.78;5015039;28;20124;-68
2023/11/09 08:58:22;;;;;;;11.60;8.30;;;;;;;7.39;100.00;100654.19;5014971;28;20034;-68
2023/11/09 09:00:51;;;;;;;18.73;9.23;;;;;;;7.45;100.00;100651.78;5014726;28;20776;-71
2023/11/09 09:03:17;;;;;;;14.45;9.63;;;;;;;7.54;100.00;100659.88;5014675;28;20120;-68
2023/11/09 09:05:42;;;;;;;15.93;9.63;;;;;;;7.58;100.00;100656.78;5013977;28;20588;-69
2023/11/09 09:08:08;;;;;;;17.13;9.50;;;;;;;7.45;100.00;100645.66;5015141;28;20111;-67
2023/11/09 09:10:35;;;;;;;15.67;10.03;;;;;;;7.40;100.00;100637.31;5013656;28;20058;-68
2023/11/09 09:13:02;;;;;;;17.63;10.20;;;;;;;7.48;100.00;100634.75;5014576;28;20044;-68
2023/11/09 09:15:31;;;;;;;14.63;10.40;;;;;;;7.56;100.00;100649.94;5014288;28;20104;-69
2023/11/09 09:17:58;;;;;;;;;;;;;;;7.67;100.00;100663.00;5014592;28;20062;-68
2023/11/09 09:20:24;;;;;;;17.37;11.17;;;;;;;7.63;100.00;100670.41;5013774;28;20746;-68
2023/11/09 09:22:59;;;;;;;16.73;11.00;;;;;;;7.48;100.00;100650.66;5014745;28;20060;-67
2023/11/09 09:25:29;;;;;;;20.57;11.90;;;;;;;7.63;100.00;100653.69;5013173;28;20049;-68
2023/11/09 09:27:55;;;;;;;21.53;12.43;;;;;;;7.69;100.00;100669.81;5014459;28;20041;-68
2023/11/09 09:30:22;;;;;;;19.97;11.73;;;;;;;7.64;100.00;100650.88;5013122;28;20041;-72
2023/11/09 09:32:50;;;;;;;22.83;12.57;;;;;;;7.76;100.00;100665.59;5014267;28;20060;-71
2023/11/09 09:35:20;;;;;;;21.53;11.60;;;;;;;7.68;100.00;100640.81;5014094;28;20495;-70
2023/11/09 09:37:47;;;;;;;27.37;13.13;;;;;;;7.81;100.00;100659.06;5014301;28;20045;-71
2023/11/09 09:40:25;;;;;;;22.50;12.27;;;;;;;7.18;100.00;100556.38;5014636;28;20038;-69
2023/11/09 09:42:52;;;;;;;24.42;11.77;;;;;;;7.90;100.00;100676.72;5013712;28;20378;-69
2023/11/09 09:45:26;;;;;;;20.40;11.90;;;;;;;7.79;100.00;100664.47;5013773;28;20092;-74
2023/11/09 09:47:53;;;;;;;20.47;11.83;;;;;;;7.66;100.00;100656.03;5013080;28;20081;-71
2023/11/09 09:50:23;;;;;;;17.30;10.70;;;;;;;7.70;100.00;100670.66;5012852;28;20088;-74
2023/11/09 09:52:55;;;;;;;19.57;12.07;;;;;;;7.71;100.00;100672.31;5014023;28;20072;-69
2023/11/09 09:55:24;;;;;;;22.33;11.17;;;;;;;7.80;100.00;100686.50;5013570;28;20176;-67
2023/11/09 09:57:51;;;;;;;25.97;13.00;;;;;;;7.80;100.00;100673.25;5013854;28;20030;-69
2023/11/09 10:00:28;;;;;;;19.80;11.37;;;;;;;7.64;100.00;100661.47;5014030;28;20029;-69
2023/11/09 10:03:00;;;;;;;22.58;11.63;;;;;;;7.69;100.00;100669.00;5012330;28;20038;-66
2023/11/09 10:05:27;;;;;;;24.67;10.83;;;;;;;7.75;100.00;100668.41;5012273;28;20034;-68
2023/11/09 10:08:02;;;;;;;21.47;12.23;;;;;;;7.82;100.00;100679.28;5013961;28;20041;-65
2023/11/09 10:10:32;;;;;;;23.87;12.73;;;;;;;7.71;100.00;100673.16;5013846;28;20038;-65
2023/11/09 10:13:02;;;;;;;18.57;10.87;;;;;;;7.71;100.00;100678.47;5013914;28;20091;-66
2023/11/09 10:15:30;;;;;;;17.37;11.60;;;;;;;7.72;100.00;100676.66;5017818;28;20417;-67
2023/11/09 10:17:56;;;;;;;20.40;12.33;;;;;;;7.76;100.00;100686.81;5019461;28;20051;-66
2023/11/09 10:20:21;;;;;;;18.90;12.17;;;;;;;7.69;100.00;100666.34;5012833;28;20037;-68
2023/11/09 10:22:55;;;;;;;21.73;13.80;;;;;;;7.73;100.00;100676.50;5011825;28;20512;-65
2023/11/09 10:25:29;;;;;;;20.87;13.03;;;;;;;7.65;100.00;100665.81;5013182;28;20497;-67
2023/11/09 10:28:07;;;;;;;25.70;11.83;;;;;;;7.67;100.00;100665.66;5011822;28;20044;-67
2023/11/09 10:30:40;;;;;;;24.55;12.25;;;;;;;7.76;100.00;100673.56;5012882;28;20042;-68
2023/11/09 10:33:10;;;;;;;19.23;12.93;;;;;;;7.73;100.00;100676.50;5012046;28;20029;-66
2023/11/09 10:35:40;;;;;;;17.90;12.47;;;;;;;7.64;100.00;100661.47;5013315;28;20128;-66
2023/11/09 10:38:08;;;;;;;22.53;13.90;;;;;;;7.66;100.00;100664.00;5012872;28;20049;-69
2023/11/09 10:40:42;;;;;;;17.83;12.00;;;;;;;7.67;100.00;100663.00;5014328;28;20068;-71
2023/11/09 10:43:08;;;;;;;16.63;10.63;;;;;;;7.77;100.00;100672.56;5013642;28;20301;-68
2023/11/09 10:45:38;;;;;;;14.67;11.07;;;;;;;7.86;100.00;100678.84;5013037;28;20042;-68
2023/11/09 10:48:10;;;;;;;16.00;10.80;;;;;;;7.90;100.00;100679.38;5015016;28;20073;-71
2023/11/09 10:50:46;;;;;;;15.53;10.10;;;;;;;7.99;100.00;100683.78;5014388;28;20033;-70
2023/11/09 10:53:26;;;;;;;18.90;10.33;;;;;;;8.01;100.00;100668.56;5021101;28;20099;-70
2023/11/09 10:55:59;;;;;;;18.07;10.27;;;;;;;8.00;100.00;100678.31;5021732;28;20041;-67
2023/11/09 10:58:26;;;;;;;18.17;10.17;;;;;;;8.00;100.00;100674.84;5021952;28;20038;-67
2023/11/09 11:01:02;;;;;;;16.33;10.03;;;;;;;8.09;100.00;100687.19;5014627;28;20409;-68
2023/11/09 11:03:37;;;;;;;12.00;10.10;;;;;;;8.15;100.00;100681.31;5011680;28;20481;-68
2023/11/09 11:06:08;;;;;;;13.93;9.13;;;;;;;8.14;100.00;100687.63;5012465;28;20373;-66
2023/11/09 11:08:38;;;;;;;12.63;8.53;;;;;;;8.08;100.00;100696.13;5012378;28;20042;-66
2023/11/09 11:11:05;;;;;;;13.77;9.37;;;;;;;7.98;100.00;100684.75;5029189;28;20037;-66
2023/11/09 11:13:35;;;;;;;15.37;8.63;;;;;;;7.82;100.00;100677.47;5031911;28;20179;-66
2023/11/09 11:16:19;;;;;;;17.73;8.40;;;;;;;7.80;100.00;100676.75;5014962;28;20405;-66
2023/11/09 11:19:23;;;;;;;11.13;8.10;;;;;;;7.90;100.00;100693.47;5032099;28;20120;-66
2023/11/09 11:22:22;;;;;;;13.60;7.00;;;;;;;7.94;100.00;100688.69;5030718;28;20044;-65
2023/11/09 11:25:26;;;;;;;11.47;7.37;;;;;;;7.93;100.00;100693.16;5013710;28;20420;-66
2023/11/09 11:27:57;;;;;;;11.83;7.60;;;;;;;7.75;100.00;100679.00;5021693;28;20061;-65